Time;durP1;ratioP1;P1;durP2;ratioP2;P2;SDS_P1;SDS_P2;PMS_P1;PMS_P2;Temp;Humidity;BMP_temperature;BMP_pressure;BME280_temperature;BME280_humidity;BME280_pressure;Samples;Min_cycle;Max_cycle;Signal;HPM_P1;HPM_P2
2023/02/03 00:00:27;;;;;;;7.78;3.55;;;;;;;;;;5053079;28;20277;-67
2023/02/03 00:02:57;;;;;;;8.70;2.90;;;;;;;;;;5034410;28;20203;-67
2023/02/03 00:05:25;;;;;;;11.55;3.47;;;;;;;;;;5046099;28;20193;-67
2023/02/03 00:07:53;;;;;;;9.13;2.65;;;;;;;;;;5034947;28;20230;-67
2023/02/03 00:10:22;;;;;;;3.50;2.70;;;;;;;;;;5047970;28;20208;-67
2023/02/03 00:12:51;;;;;;;4.18;3.00;;;;;;;;;;5055423;28;20204;-66
2023/02/03 00:15:21;;;;;;;5.10;2.85;;;;;;;;;;5054798;28;20577;-67
2023/02/03 00:17:50;;;;;;;9.55;3.08;;;;;;;;;;5054575;28;20254;-68
2023/02/03 00:20:20;;;;;;;5.60;2.95;;;;;;;;;;5054944;28;20215;-67
2023/02/03 00:22:48;;;;;;;5.10;3.03;;;;;;;;;;5037932;28;20221;-66
2023/02/03 00:25:16;;;;;;;5.95;2.45;;;;;;;;;;5035226;28;20212;-66
2023/02/03 00:27:44;;;;;;;10.98;3.10;;;;;;;;;;5034583;28;20695;-66
2023/02/03 00:30:12;;;;;;;4.25;2.40;;;;;;;;;;5033671;28;20578;-66
2023/02/03 00:32:40;;;;;;;7.32;2.88;;;;;;;;;;5035235;28;20209;-66
2023/02/03 00:35:08;;;;;;;5.78;3.22;;;;;;;;;;5035019;28;20215;-66
2023/02/03 00:37:39;;;;;;;7.47;2.60;;;;;;;;;;5035369;28;20201;-66
2023/02/03 00:40:08;;;;;;;4.13;2.80;;;;;;;;;;5033722;28;20194;-66
2023/02/03 00:42:36;;;;;;;5.47;2.42;;;;;;;;;;5040805;28;20208;-66
2023/02/03 00:45:04;;;;;;;7.55;2.60;;;;;;;;;;5039291;28;20620;-66
2023/02/03 00:47:32;;;;;;;5.55;3.22;;;;;;;;;;5035793;28;20232;-66
2023/02/03 00:50:01;;;;;;;8.38;2.60;;;;;;;;;;5050226;28;20212;-67
2023/02/03 00:52:29;;;;;;;5.00;2.30;;;;;;;;;;5045409;28;20197;-66
2023/02/03 00:54:58;;;;;;;7.78;2.97;;;;;;;;;;5033883;28;20574;-67
2023/02/03 00:57:26;;;;;;;5.80;3.35;;;;;;;;;;5049672;28;20196;-67
2023/02/03 00:59:54;;;;;;;6.10;2.38;;;;;;;;;;5054131;28;20201;-66
2023/02/03 01:02:22;;;;;;;5.30;2.58;;;;;;;;;;5053371;28;20204;-67
2023/02/03 01:04:50;;;;;;;8.93;3.55;;;;;;;;;;5052057;28;20205;-66
2023/02/03 01:07:18;;;;;;;4.35;2.75;;;;;;;;;;5054129;28;20742;-66
2023/02/03 01:09:46;;;;;;;4.10;2.95;;;;;;;;;;5036548;28;20245;-66
2023/02/03 01:12:16;;;;;;;3.15;2.72;;;;;;;;;;5034228;28;20208;-66
2023/02/03 01:14:43;;;;;;;6.90;2.70;;;;;;;;;;5033401;28;20228;-66
2023/02/03 01:17:11;;;;;;;3.78;2.97;;;;;;;;;;5033725;28;20236;-66
2023/02/03 01:19:39;;;;;;;3.25;2.65;;;;;;;;;;5037347;28;20200;-66
2023/02/03 01:22:07;;;;;;;3.83;3.05;;;;;;;;;;5033513;28;20205;-66
2023/02/03 01:24:35;;;;;;;3.33;2.10;;;;;;;;;;5052530;28;20201;-66
2023/02/03 01:27:05;;;;;;;3.85;2.53;;;;;;;;;;5034544;28;20198;-66
2023/02/03 01:29:34;;;;;;;4.07;3.00;;;;;;;;;;5044923;28;20200;-66
2023/02/03 01:32:03;;;;;;;5.97;2.95;;;;;;;;;;5037290;28;20201;-66
2023/02/03 01:34:31;;;;;;;4.15;2.83;;;;;;;;;;5033082;28;20716;-67
2023/02/03 01:37:00;;;;;;;3.15;2.60;;;;;;;;;;5032622;28;20205;-66
2023/02/03 01:39:29;;;;;;;5.18;3.05;;;;;;;;;;5043904;28;20651;-66
2023/02/03 01:41:58;;;;;;;4.00;3.10;;;;;;;;;;5050160;28;20200;-66
2023/02/03 01:44:39;;;;;;;4.30;3.42;;;;;;;;;;5047644;28;20568;-66
2023/02/03 01:47:11;;;;;;;11.35;4.05;;;;;;;;;;5044437;28;20219;-67
2023/02/03 01:49:41;;;;;;;4.57;3.80;;;;;;;;;;5052111;28;20215;-67
2023/02/03 01:52:09;;;;;;;4.35;3.95;;;;;;;;;;5032621;28;20581;-66
2023/02/03 01:54:40;;;;;;;5.60;4.05;;;;;;;;;;5032956;28;20217;-66
2023/02/03 01:57:14;;;;;;;5.35;3.28;;;;;;;;;;5033394;28;20205;-66
2023/02/03 01:59:43;;;;;;;4.28;3.88;;;;;;;;;;5031306;28;20197;-66
2023/02/03 02:02:12;;;;;;;4.47;3.70;;;;;;;;;;5050494;28;20220;-66
2023/02/03 02:04:43;;;;;;;5.47;4.05;;;;;;;;;;5051739;28;20213;-66
2023/02/03 02:07:11;;;;;;;8.50;4.45;;;;;;;;;;5052812;28;20192;-66
2023/02/03 02:09:41;;;;;;;3.88;3.33;;;;;;;;;;5051428;28;20563;-66
2023/02/03 02:12:10;;;;;;;5.07;4.00;;;;;;;;;;5041243;28;20201;-66
2023/02/03 02:14:38;;;;;;;3.22;2.90;;;;;;;;;;5052177;28;20220;-66
2023/02/03 02:17:12;;;;;;;3.63;3.42;;;;;;;;;;5040978;28;20236;-66
2023/02/03 02:19:59;;;;;;;3.80;3.10;;;;;;;;;;5046300;28;20567;-66
2023/02/03 02:22:30;;;;;;;3.47;3.28;;;;;;;;;;5031074;28;20229;-67
2023/02/03 02:25:10;;;;;;;6.78;3.60;;;;;;;;;;5039049;28;20552;-66
2023/02/03 02:27:59;;;;;;;4.03;3.63;;;;;;;;;;5043908;28;20208;-66
2023/02/03 02:30:40;;;;;;;3.92;3.00;;;;;;;;;;5049222;28;20649;-66
2023/02/03 02:33:20;;;;;;;4.00;3.30;;;;;;;;;;5050374;28;20197;-67
2023/02/03 02:35:56;;;;;;;3.40;3.10;;;;;;;;;;5044938;28;20200;-66
2023/02/03 02:38:28;;;;;;;5.50;2.90;;;;;;;;;;5052364;28;20549;-66
2023/02/03 02:41:00;;;;;;;3.65;2.50;;;;;;;;;;5050825;28;20189;-66
2023/02/03 02:43:30;;;;;;;3.08;2.50;;;;;;;;;;5040469;28;20255;-66
2023/02/03 02:46:02;;;;;;;5.53;3.15;;;;;;;;;;5043927;28;20587;-66
2023/02/03 02:48:34;;;;;;;6.20;2.80;;;;;;;;;;5041943;28;20222;-67
2023/02/03 02:51:05;;;;;;;3.10;2.80;;;;;;;;;;5050467;28;20212;-66
2023/02/03 02:53:36;;;;;;;3.38;2.85;;;;;;;;;;5045355;28;20246;-66
2023/02/03 02:56:07;;;;;;;2.90;2.58;;;;;;;;;;5039058;28;20552;-66
2023/02/03 02:58:36;;;;;;;3.28;2.95;;;;;;;;;;5038059;28;20193;-66
2023/02/03 03:01:05;;;;;;;9.20;4.20;;;;;;;;;;5045623;28;20251;-66
2023/02/03 03:03:34;;;;;;;5.00;2.90;;;;;;;;;;5045129;28;20631;-66
2023/02/03 03:06:03;;;;;;;4.45;3.30;;;;;;;;;;5042035;28;20204;-66
2023/02/03 03:08:39;;;;;;;4.00;3.70;;;;;;;;;;5050675;28;20204;-66
2023/02/03 03:11:07;;;;;;;5.20;2.95;;;;;;;;;;5051622;28;20581;-66
2023/02/03 03:13:38;;;;;;;3.55;2.88;;;;;;;;;;5052930;28;20227;-66
2023/02/03 03:16:07;;;;;;;4.75;3.63;;;;;;;;;;5042449;28;20193;-66
2023/02/03 03:18:42;;;;;;;5.28;3.75;;;;;;;;;;5043875;28;20208;-66
2023/02/03 03:21:11;;;;;;;4.50;3.30;;;;;;;;;;5038077;28;20552;-66
2023/02/03 03:23:41;;;;;;;6.25;4.30;;;;;;;;;;5035842;28;20229;-66
2023/02/03 03:26:12;;;;;;;118.20;60.00;;;;;;;;;;5037242;28;20201;-66
2023/02/03 03:28:43;;;;;;;72.97;40.05;;;;;;;;;;5035606;28;20254;-67
2023/02/03 03:31:11;;;;;;;53.60;34.08;;;;;;;;;;5050968;28;20200;-66
2023/02/03 03:33:41;;;;;;;16.35;9.80;;;;;;;;;;5054895;28;20207;-67
2023/02/03 03:36:13;;;;;;;8.60;5.15;;;;;;;;;;5054266;28;20200;-66
2023/02/03 03:38:42;;;;;;;6.15;4.95;;;;;;;;;;5055460;28;20551;-66
2023/02/03 03:41:15;;;;;;;9.15;8.30;;;;;;;;;;5053714;28;20200;-66
2023/02/03 03:43:45;;;;;;;7.68;6.25;;;;;;;;;;5054649;28;20737;-66
2023/02/03 03:46:14;;;;;;;5.75;4.38;;;;;;;;;;5053320;28;20277;-66
2023/02/03 03:48:51;;;;;;;6.75;5.20;;;;;;;;;;5046843;28;20262;-66
2023/02/03 03:51:20;;;;;;;8.68;4.85;;;;;;;;;;5034362;28;20242;-66
2023/02/03 03:53:51;;;;;;;7.97;6.10;;;;;;;;;;5038472;28;20213;-66
2023/02/03 03:56:22;;;;;;;6.63;4.50;;;;;;;;;;5052623;28;20640;-67
2023/02/03 03:58:53;;;;;;;7.70;4.30;;;;;;;;;;5035838;28;20196;-67
2023/02/03 04:01:22;;;;;;;9.63;6.78;;;;;;;;;;5045532;28;20197;-67
2023/02/03 04:03:55;;;;;;;5.13;4.63;;;;;;;;;;5053538;28;20648;-66
2023/02/03 04:06:24;;;;;;;6.45;5.85;;;;;;;;;;5054486;28;20211;-66
2023/02/03 04:08:52;;;;;;;4.82;4.53;;;;;;;;;;5048365;28;20221;-66
2023/02/03 04:14:02;;;;;;;4.35;3.47;;;;;;;;;;5050989;28;20647;-66
2023/02/03 04:16:30;;;;;;;3.33;3.13;;;;;;;;;;5053254;28;20240;-67
2023/02/03 04:19:00;;;;;;;4.13;3.80;;;;;;;;;;5043641;28;20205;-66
2023/02/03 04:21:28;;;;;;;5.35;3.80;;;;;;;;;;5054148;28;20663;-66
2023/02/03 04:23:56;;;;;;;6.05;3.83;;;;;;;;;;5055143;28;20258;-66
2023/02/03 04:26:25;;;;;;;4.03;3.35;;;;;;;;;;5039015;28;20219;-66
2023/02/03 04:28:53;;;;;;;3.97;3.38;;;;;;;;;;5046922;28;20228;-66
2023/02/03 04:31:21;;;;;;;7.25;3.42;;;;;;;;;;5038423;28;20224;-66
2023/02/03 04:33:49;;;;;;;4.68;3.75;;;;;;;;;;5054347;28;20511;-66
2023/02/03 04:36:19;;;;;;;2.67;2.47;;;;;;;;;;5046625;28;20201;-67
2023/02/03 04:38:48;;;;;;;5.25;3.75;;;;;;;;;;5045471;28;20196;-66
2023/02/03 04:41:17;;;;;;;5.30;3.30;;;;;;;;;;5039095;28;20205;-66
2023/02/03 04:43:45;;;;;;;14.02;4.20;;;;;;;;;;5040640;28;20219;-66
2023/02/03 04:46:13;;;;;;;5.80;3.70;;;;;;;;;;5041493;28;20203;-67
2023/02/03 04:48:41;;;;;;;6.60;4.20;;;;;;;;;;5034830;28;20237;-66
2023/02/03 04:51:12;;;;;;;4.57;3.92;;;;;;;;;;5054457;28;20188;-66
2023/02/03 04:53:41;;;;;;;6.97;3.70;;;;;;;;;;5054698;28;20214;-66
2023/02/03 04:56:09;;;;;;;4.55;3.47;;;;;;;;;;5054055;28;20201;-66
2023/02/03 04:58:37;;;;;;;5.80;3.88;;;;;;;;;;5053699;28;20698;-66
2023/02/03 05:01:09;;;;;;;3.65;3.35;;;;;;;;;;5048476;28;20203;-66
2023/02/03 05:03:37;;;;;;;8.40;4.57;;;;;;;;;;5045027;28;20220;-66
2023/02/03 05:06:06;;;;;;;4.65;4.13;;;;;;;;;;5053960;28;20205;-66
2023/02/03 05:08:34;;;;;;;3.85;3.55;;;;;;;;;;5034769;28;20197;-66
2023/02/03 05:11:03;;;;;;;6.00;3.22;;;;;;;;;;5042760;28;20224;-66
2023/02/03 05:13:31;;;;;;;3.53;2.95;;;;;;;;;;5049732;28;20207;-66
2023/02/03 05:16:00;;;;;;;5.43;2.90;;;;;;;;;;5039750;28;20201;-66
2023/02/03 05:18:28;;;;;;;3.70;3.40;;;;;;;;;;5054178;28;20193;-66
2023/02/03 05:20:56;;;;;;;6.32;3.35;;;;;;;;;;5046810;28;20657;-66
2023/02/03 05:23:24;;;;;;;3.85;3.30;;;;;;;;;;5034017;28;20244;-66
2023/02/03 05:25:52;;;;;;;3.15;2.25;;;;;;;;;;5033611;28;20198;-67
2023/02/03 05:28:22;;;;;;;6.38;3.72;;;;;;;;;;5033700;28;20201;-66
2023/02/03 05:30:50;;;;;;;3.75;3.00;;;;;;;;;;5034530;28;20221;-66
2023/02/03 05:33:18;;;;;;;5.97;3.42;;;;;;;;;;5034314;28;20201;-66
2023/02/03 05:35:46;;;;;;;6.45;2.63;;;;;;;;;;5052572;28;20192;-66
2023/02/03 05:38:14;;;;;;;3.80;2.80;;;;;;;;;;5053117;28;20561;-66
2023/02/03 05:43:29;;;;;;;3.33;2.97;;;;;;;;;;5033527;28;20201;-66
2023/02/03 05:46:00;;;;;;;3.42;3.13;;;;;;;;;;5036225;28;20209;-66
2023/02/03 05:48:28;;;;;;;3.08;2.45;;;;;;;;;;5050035;28;20204;-66
2023/02/03 05:50:56;;;;;;;4.93;2.72;;;;;;;;;;5044533;28;20221;-66
2023/02/03 05:53:24;;;;;;;3.33;2.90;;;;;;;;;;5033749;28;20288;-66
2023/02/03 05:55:53;;;;;;;3.83;2.63;;;;;;;;;;5039832;28;20211;-66
2023/02/03 05:58:20;;;;;;;6.55;2.97;;;;;;;;;;5051463;28;20204;-66
2023/02/03 06:00:50;;;;;;;6.80;3.13;;;;;;;;;;5042262;28;20192;-66
2023/02/03 06:03:18;;;;;;;3.38;3.17;;;;;;;;;;5049393;28;20242;-66
2023/02/03 06:05:46;;;;;;;3.17;2.63;;;;;;;;;;5051589;28;20215;-66
2023/02/03 06:08:14;;;;;;;3.47;3.17;;;;;;;;;;5035583;28;20212;-66
2023/02/03 06:10:42;;;;;;;2.90;2.70;;;;;;;;;;5044100;28;20679;-66
2023/02/03 06:13:10;;;;;;;3.67;3.38;;;;;;;;;;5038939;28;20205;-66
2023/02/03 06:15:38;;;;;;;6.70;3.45;;;;;;;;;;5044237;28;20564;-67
2023/02/03 06:18:08;;;;;;;5.05;2.85;;;;;;;;;;5050335;28;20225;-66
2023/02/03 06:20:36;;;;;;;4.10;3.35;;;;;;;;;;5034067;28;20201;-66
2023/02/03 06:23:04;;;;;;;2.88;2.45;;;;;;;;;;5032702;28;20224;-66
2023/02/03 06:25:32;;;;;;;6.70;3.50;;;;;;;;;;5032622;28;20197;-66
2023/02/03 06:28:00;;;;;;;4.65;2.97;;;;;;;;;;5031185;28;20197;-66
2023/02/03 06:30:28;;;;;;;6.75;3.45;;;;;;;;;;5045051;28;20226;-66
2023/02/03 06:32:56;;;;;;;6.80;2.80;;;;;;;;;;5051784;28;20201;-66
2023/02/03 06:35:25;;;;;;;3.50;3.08;;;;;;;;;;5050874;28;20208;-66
2023/02/03 06:37:54;;;;;;;5.32;3.35;;;;;;;;;;5051332;28;20197;-66
2023/02/03 06:40:22;;;;;;;8.40;3.30;;;;;;;;;;5035832;28;20238;-66
2023/02/03 06:42:50;;;;;;;4.32;3.42;;;;;;;;;;5036879;28;21116;-64
2023/02/03 06:45:18;;;;;;;3.67;3.25;;;;;;;;;;5044760;28;20671;-65
2023/02/03 06:47:46;;;;;;;4.38;3.97;;;;;;;;;;5040907;28;20196;-64
2023/02/03 06:50:15;;;;;;;5.55;4.75;;;;;;;;;;5038238;28;20564;-63
2023/02/03 06:52:45;;;;;;;5.65;4.00;;;;;;;;;;5047343;28;20205;-65
2023/02/03 06:55:13;;;;;;;7.97;4.20;;;;;;;;;;5051162;28;20197;-65
2023/02/03 06:57:44;;;;;;;6.88;4.13;;;;;;;;;;5036504;28;20208;-65
2023/02/03 07:00:13;;;;;;;8.13;3.72;;;;;;;;;;5037143;28;20196;-65
2023/02/03 07:02:41;;;;;;;7.25;4.28;;;;;;;;;;5050004;28;20208;-64
2023/02/03 07:05:09;;;;;;;5.15;3.78;;;;;;;;;;5048945;28;20204;-64
2023/02/03 07:07:38;;;;;;;4.13;3.50;;;;;;;;;;5051604;28;20207;-65
2023/02/03 07:10:08;;;;;;;4.63;3.88;;;;;;;;;;5052127;28;20233;-64
2023/02/03 07:12:36;;;;;;;3.95;3.65;;;;;;;;;;5051419;28;20196;-65
2023/02/03 07:15:04;;;;;;;4.05;3.70;;;;;;;;;;5050045;28;20198;-64
2023/02/03 07:17:32;;;;;;;3.58;3.28;;;;;;;;;;5049353;28;20239;-64
2023/02/03 07:20:00;;;;;;;4.85;4.00;;;;;;;;;;5052245;28;20192;-64
2023/02/03 07:22:28;;;;;;;5.03;3.67;;;;;;;;;;5051526;28;20228;-64
2023/02/03 07:24:56;;;;;;;5.53;4.25;;;;;;;;;;5051761;28;20208;-64
2023/02/03 07:27:26;;;;;;;10.90;4.55;;;;;;;;;;5051897;28;20530;-64
2023/02/03 07:29:54;;;;;;;3.63;3.40;;;;;;;;;;5051731;28;20193;-64
2023/02/03 07:32:22;;;;;;;9.90;3.88;;;;;;;;;;5050970;28;20208;-65
2023/02/03 07:34:50;;;;;;;4.78;4.18;;;;;;;;;;5050087;28;20647;-63
2023/02/03 07:37:18;;;;;;;5.68;3.67;;;;;;;;;;5043913;28;20207;-63
2023/02/03 07:39:46;;;;;;;4.68;4.07;;;;;;;;;;5049971;28;20208;-64
2023/02/03 07:42:14;;;;;;;3.80;3.50;;;;;;;;;;5051163;28;20204;-65
2023/02/03 07:44:48;;;;;;;6.00;3.85;;;;;;;;;;5050936;28;20184;-65
2023/02/03 07:47:16;;;;;;;4.43;4.03;;;;;;;;;;5041991;28;20201;-68
2023/02/03 07:49:44;;;;;;;5.70;4.35;;;;;;;;;;5031944;28;20209;-65
2023/02/03 07:52:13;;;;;;;3.58;3.30;;;;;;;;;;5031427;28;20205;-65
2023/02/03 07:54:41;;;;;;;3.55;3.15;;;;;;;;;;5032153;28;20209;-65
2023/02/03 07:57:09;;;;;;;4.75;3.38;;;;;;;;;;5030816;28;20201;-66
2023/02/03 07:59:37;;;;;;;5.90;3.78;;;;;;;;;;5035396;28;20553;-65
2023/02/03 08:02:07;;;;;;;4.13;3.42;;;;;;;;;;5033615;28;20221;-65
2023/02/03 08:04:35;;;;;;;4.90;3.95;;;;;;;;;;5034017;28;20200;-65
2023/02/03 08:07:03;;;;;;;6.32;3.80;;;;;;;;;;5033291;28;20623;-66
2023/02/03 08:09:31;;;;;;;3.63;3.40;;;;;;;;;;5035812;28;20202;-66
2023/02/03 08:11:59;;;;;;;8.15;2.92;;;;;;;;;;5034452;28;20700;-66
2023/02/03 08:14:27;;;;;;;6.03;3.50;;;;;;;;;;5034864;28;20208;-64
2023/02/03 08:16:55;;;;;;;3.58;3.33;;;;;;;;;;5034759;28;20233;-65
2023/02/03 08:19:25;;;;;;;4.13;3.75;;;;;;;;;;5035291;28;20205;-65
2023/02/03 08:21:53;;;;;;;5.40;3.40;;;;;;;;;;5034853;28;20300;-65
2023/02/03 08:24:20;;;;;;;3.53;2.50;;;;;;;;;;5035585;28;20210;-65
2023/02/03 08:26:48;;;;;;;2.88;2.58;;;;;;;;;;5034613;28;20216;-65
2023/02/03 08:29:16;;;;;;;5.53;2.90;;;;;;;;;;5034468;28;20220;-65
2023/02/03 08:31:44;;;;;;;6.00;2.80;;;;;;;;;;5034337;28;20228;-65
2023/02/03 08:34:12;;;;;;;2.80;2.60;;;;;;;;;;5034642;28;20668;-65
2023/02/03 08:36:42;;;;;;;2.53;2.33;;;;;;;;;;5034674;28;20209;-64
2023/02/03 08:39:11;;;;;;;2.97;2.78;;;;;;;;;;5034476;28;20189;-64
2023/02/03 08:41:39;;;;;;;2.90;2.65;;;;;;;;;;5040914;28;20210;-65
2023/02/03 08:44:07;;;;;;;2.53;2.33;;;;;;;;;;5049966;28;20201;-64
2023/02/03 08:46:35;;;;;;;5.47;2.60;;;;;;;;;;5034836;28;20210;-65
2023/02/03 08:49:03;;;;;;;6.32;2.80;;;;;;;;;;5043780;28;20682;-65
2023/02/03 08:51:31;;;;;;;5.15;2.30;;;;;;;;;;5052271;28;20228;-64
2023/02/03 08:54:00;;;;;;;3.35;2.67;;;;;;;;;;5053668;28;20672;-65
2023/02/03 08:56:28;;;;;;;2.90;2.70;;;;;;;;;;5051697;28;20611;-64
2023/02/03 08:58:56;;;;;;;5.93;2.30;;;;;;;;;;5033928;28;20201;-65
2023/02/03 09:01:27;;;;;;;5.60;2.30;;;;;;;;;;5033121;28;20193;-64
2023/02/03 09:03:55;;;;;;;2.83;2.53;;;;;;;;;;5031035;28;20201;-64
2023/02/03 09:06:23;;;;;;;2.80;2.60;;;;;;;;;;5033715;28;20232;-65
2023/02/03 09:08:52;;;;;;;2.28;2.17;;;;;;;;;;5034102;28;20644;-65
2023/02/03 09:11:21;;;;;;;2.40;2.30;;;;;;;;;;5036145;28;20224;-66
2023/02/03 09:13:50;;;;;;;2.38;2.28;;;;;;;;;;5034072;28;20643;-66
2023/02/03 09:16:20;;;;;;;2.90;2.60;;;;;;;;;;5033939;28;20604;-66
2023/02/03 09:18:48;;;;;;;2.42;2.13;;;;;;;;;;5034041;28;20194;-66
2023/02/03 09:21:16;;;;;;;6.60;1.95;;;;;;;;;;5034032;28;20205;-66
2023/02/03 09:23:45;;;;;;;2.45;2.28;;;;;;;;;;5032243;28;20225;-66
2023/02/03 09:26:13;;;;;;;4.45;2.50;;;;;;;;;;5033087;28;20540;-67
2023/02/03 09:28:43;;;;;;;2.00;1.90;;;;;;;;;;5032741;28;20201;-66
2023/02/03 09:31:11;;;;;;;2.47;2.22;;;;;;;;;;5032717;28;20228;-66
2023/02/03 09:33:40;;;;;;;2.70;2.50;;;;;;;;;;5033865;28;20211;-66
2023/02/03 09:36:08;;;;;;;2.70;2.50;;;;;;;;;;5033376;28;20197;-66
2023/02/03 09:38:36;;;;;;;2.63;2.50;;;;;;;;;;5033680;28;20206;-66
2023/02/03 09:41:07;;;;;;;2.78;2.20;;;;;;;;;;5032348;28;20208;-68
2023/02/03 09:43:38;;;;;;;2.70;2.50;;;;;;;;;;5031653;28;20190;-66
2023/02/03 09:46:08;;;;;;;2.15;2.05;;;;;;;;;;5044160;28;20201;-67
2023/02/03 09:48:38;;;;;;;3.67;2.60;;;;;;;;;;5052175;28;20204;-67
2023/02/03 09:51:08;;;;;;;2.22;2.13;;;;;;;;;;5052154;28;20227;-66
2023/02/03 09:53:38;;;;;;;2.33;2.17;;;;;;;;;;5053642;28;20550;-66
2023/02/03 09:56:06;;;;;;;2.85;2.40;;;;;;;;;;5052550;28;20196;-65
2023/02/03 09:58:35;;;;;;;2.00;1.90;;;;;;;;;;5053625;28;20207;-66
2023/02/03 10:01:04;;;;;;;2.20;1.98;;;;;;;;;;5051694;28;20204;-66
2023/02/03 10:03:37;;;;;;;2.58;2.40;;;;;;;;;;5052145;28;20672;-65
2023/02/03 10:06:14;;;;;;;1.98;1.88;;;;;;;;;;5048559;28;20568;-67
2023/02/03 10:08:48;;;;;;;3.03;2.35;;;;;;;;;;5052981;28;20210;-65
2023/02/03 10:11:20;;;;;;;3.28;1.77;;;;;;;;;;5051256;28;20681;-64
2023/02/03 10:13:54;;;;;;;2.30;2.20;;;;;;;;;;5052266;28;20570;-65
2023/02/03 10:16:30;;;;;;;2.67;1.83;;;;;;;;;;5051799;28;20745;-65
2023/02/03 10:19:01;;;;;;;2.63;2.40;;;;;;;;;;5053037;28;20189;-65
2023/02/03 10:21:35;;;;;;;2.10;2.00;;;;;;;;;;5051560;28;20258;-65
2023/02/03 10:24:04;;;;;;;2.85;2.10;;;;;;;;;;5053091;28;20229;-64
2023/02/03 10:26:32;;;;;;;2.67;2.47;;;;;;;;;;5052619;28;20201;-65
2023/02/03 10:29:04;;;;;;;3.55;2.55;;;;;;;;;;5052622;28;20216;-64
2023/02/03 10:31:35;;;;;;;2.75;2.55;;;;;;;;;;5051864;28;20228;-66
2023/02/03 10:34:09;;;;;;;2.80;2.60;;;;;;;;;;5052680;28;20204;-65
2023/02/03 10:36:47;;;;;;;2.95;2.40;;;;;;;;;;5052305;28;20188;-66
2023/02/03 10:39:19;;;;;;;3.78;2.30;;;;;;;;;;5052182;28;20192;-67
2023/02/03 10:41:48;;;;;;;2.75;1.88;;;;;;;;;;5049997;28;20276;-66
2023/02/03 10:44:16;;;;;;;2.08;1.98;;;;;;;;;;5051881;28;20205;-68
2023/02/03 10:46:45;;;;;;;2.00;1.90;;;;;;;;;;5052239;28;20212;-66
2023/02/03 10:49:17;;;;;;;3.50;1.63;;;;;;;;;;5051422;28;20200;-65
2023/02/03 10:51:48;;;;;;;2.35;1.75;;;;;;;;;;5050872;28;20575;-65
2023/02/03 10:54:31;;;;;;;1.88;1.77;;;;;;;;;;5051925;28;20193;-65
2023/02/03 10:57:03;;;;;;;1.55;1.45;;;;;;;;;;5052100;28;20636;-65
2023/02/03 10:59:34;;;;;;;2.30;1.40;;;;;;;;;;5051554;28;20696;-65
2023/02/03 11:02:07;;;;;;;1.67;1.58;;;;;;;;;;5051495;28;20195;-66
2023/02/03 11:04:37;;;;;;;5.65;2.72;;;;;;;;;;5050185;28;20188;-66
2023/02/03 11:07:07;;;;;;;1.58;1.48;;;;;;;;;;5045753;28;20549;-66
2023/02/03 11:09:37;;;;;;;1.88;1.40;;;;;;;;;;5044171;28;20201;-66
2023/02/03 11:12:11;;;;;;;1.38;1.27;;;;;;;;;;5048890;28;20709;-65
2023/02/03 11:14:41;;;;;;;1.30;1.20;;;;;;;;;;5044725;28;20679;-67
2023/02/03 11:17:15;;;;;;;1.50;1.40;;;;;;;;;;5051992;28;20228;-66
2023/02/03 11:19:46;;;;;;;0.85;0.85;;;;;;;;;;5051416;28;20195;-65
2023/02/03 11:22:15;;;;;;;1.00;1.00;;;;;;;;;;5052299;28;22043;-65
2023/02/03 11:24:44;;;;;;;1.27;1.17;;;;;;;;;;5051693;28;20570;-65
2023/02/03 11:27:15;;;;;;;1.25;1.15;;;;;;;;;;5052318;28;20231;-65
2023/02/03 11:29:44;;;;;;;1.95;1.17;;;;;;;;;;5051509;28;20550;-65
2023/02/03 11:32:17;;;;;;;1.30;1.20;;;;;;;;;;5051883;28;20703;-65
2023/02/03 11:34:53;;;;;;;1.35;1.13;;;;;;;;;;5055301;28;20193;-65
2023/02/03 11:37:26;;;;;;;1.30;1.02;;;;;;;;;;5053528;28;20209;-65
2023/02/03 11:40:17;;;;;;;1.80;1.25;;;;;;;;;;5050281;28;20273;-65
2023/02/03 11:43:00;;;;;;;1.00;0.90;;;;;;;;;;5054120;28;20200;-65
2023/02/03 11:45:29;;;;;;;1.17;1.08;;;;;;;;;;5048833;28;20219;-65
2023/02/03 11:47:59;;;;;;;1.13;1.00;;;;;;;;;;5045178;28;20204;-65
2023/02/03 11:50:30;;;;;;;1.45;1.10;;;;;;;;;;5043725;28;20274;-65
2023/02/03 11:53:02;;;;;;;1.33;1.13;;;;;;;;;;5043896;28;20216;-65
2023/02/03 11:55:40;;;;;;;1.55;1.05;;;;;;;;;;5043270;28;20189;-65
2023/02/03 11:58:36;;;;;;;5.07;1.10;;;;;;;;;;5043067;28;20193;-66
2023/02/03 12:01:10;;;;;;;2.10;1.52;;;;;;;;;;5041981;28;20198;-65
2023/02/03 12:03:57;;;;;;;1.10;1.10;;;;;;;;;;5047126;28;20563;-65
2023/02/03 12:06:37;;;;;;;1.92;0.90;;;;;;;;;;5046075;28;20188;-65
2023/02/03 12:09:12;;;;;;;1.77;0.90;;;;;;;;;;5039991;28;20196;-65
2023/02/03 12:11:48;;;;;;;1.30;1.20;;;;;;;;;;5044902;28;20227;-66
2023/02/03 12:14:28;;;;;;;0.90;0.90;;;;;;;;;;5044268;28;20212;-65
2023/02/03 12:17:03;;;;;;;1.42;1.33;;;;;;;;;;5041117;28;20715;-65
2023/02/03 12:19:37;;;;;;;0.80;0.80;;;;;;;;;;5036135;28;20609;-65
2023/02/03 12:22:12;;;;;;;0.95;0.80;;;;;;;;;;5036480;28;20211;-65
2023/02/03 12:24:45;;;;;;;1.95;1.05;;;;;;;;;;5046537;28;20203;-65
2023/02/03 12:27:17;;;;;;;0.90;0.90;;;;;;;;;;5047133;28;20199;-65
2023/02/03 12:29:50;;;;;;;1.02;0.90;;;;;;;;;;5048898;28;20642;-65
2023/02/03 12:32:23;;;;;;;9.25;1.10;;;;;;;;;;5042337;28;20212;-65
2023/02/03 12:34:53;;;;;;;1.35;1.25;;;;;;;;;;5048165;28;20231;-65
2023/02/03 12:37:24;;;;;;;1.23;1.10;;;;;;;;;;5035817;28;20198;-65
2023/02/03 12:39:53;;;;;;;0.85;0.85;;;;;;;;;;5036299;28;20197;-65
2023/02/03 12:42:25;;;;;;;1.40;0.98;;;;;;;;;;5048941;28;20238;-65
2023/02/03 12:44:56;;;;;;;1.00;1.00;;;;;;;;;;5043036;28;20197;-65
2023/02/03 12:47:28;;;;;;;0.90;0.90;;;;;;;;;;5041190;28;20203;-65
2023/02/03 12:49:58;;;;;;;0.90;0.90;;;;;;;;;;5046014;28;20197;-65
2023/02/03 12:52:28;;;;;;;1.00;1.00;;;;;;;;;;5041741;28;20641;-65
2023/02/03 12:55:00;;;;;;;1.10;1.00;;;;;;;;;;5042344;28;20203;-65
2023/02/03 12:57:31;;;;;;;0.90;0.90;;;;;;;;;;5044256;28;20193;-66
2023/02/03 13:00:14;;;;;;;1.05;0.88;;;;;;;;;;5046898;28;20685;-65
2023/02/03 13:02:48;;;;;;;1.10;1.10;;;;;;;;;;5061146;28;20201;-65
2023/02/03 13:05:20;;;;;;;2.00;0.85;;;;;;;;;;5053913;28;20188;-65
2023/02/03 13:07:49;;;;;;;1.25;1.15;;;;;;;;;;5053581;28;20242;-65
2023/02/03 13:10:20;;;;;;;0.70;0.70;;;;;;;;;;5052021;28;20204;-65
2023/02/03 13:12:51;;;;;;;0.80;0.80;;;;;;;;;;5046738;28;20205;-66
2023/02/03 13:15:25;;;;;;;0.90;0.90;;;;;;;;;;5042920;28;20205;-66
2023/02/03 13:17:57;;;;;;;0.73;0.70;;;;;;;;;;5040538;28;20301;-68
2023/02/03 13:20:27;;;;;;;1.08;1.00;;;;;;;;;;5041918;28;20205;-66
2023/02/03 13:22:56;;;;;;;6.45;0.90;;;;;;;;;;5042240;28;20217;-65
2023/02/03 13:25:25;;;;;;;0.80;0.80;;;;;;;;;;5043490;28;20215;-65
2023/02/03 13:28:00;;;;;;;0.90;0.90;;;;;;;;;;5043905;28;20258;-65
2023/02/03 13:30:34;;;;;;;1.30;0.90;;;;;;;;;;5043361;28;20189;-64
2023/02/03 13:33:20;;;;;;;0.80;0.80;;;;;;;;;;5042722;28;20209;-64
2023/02/03 13:35:56;;;;;;;1.15;0.90;;;;;;;;;;5033019;28;20208;-67
2023/02/03 13:38:32;;;;;;;0.85;0.70;;;;;;;;;;5050866;28;20208;-65
2023/02/03 13:41:03;;;;;;;2.22;0.80;;;;;;;;;;5053318;28;20192;-66
2023/02/03 13:43:34;;;;;;;1.45;0.70;;;;;;;;;;5052156;28;20197;-66
2023/02/03 13:46:03;;;;;;;0.80;0.80;;;;;;;;;;5046309;28;20266;-66
2023/02/03 13:48:32;;;;;;;2.22;0.80;;;;;;;;;;5052569;28;20213;-65
2023/02/03 13:51:07;;;;;;;0.70;0.70;;;;;;;;;;5052770;28;20203;-66
2023/02/03 13:53:37;;;;;;;1.35;0.80;;;;;;;;;;5053154;28;20215;-66
2023/02/03 13:56:08;;;;;;;0.95;0.60;;;;;;;;;;5052623;28;20714;-67
2023/02/03 13:58:38;;;;;;;2.25;0.60;;;;;;;;;;5051398;28;20209;-65
2023/02/03 14:01:23;;;;;;;1.10;1.00;;;;;;;;;;5051947;28;20745;-66
2023/02/03 14:03:51;;;;;;;1.33;1.23;;;;;;;;;;5051515;28;20200;-66
2023/02/03 14:06:37;;;;;;;2.35;0.85;;;;;;;;;;5052035;28;20197;-65
2023/02/03 14:09:20;;;;;;;1.02;1.00;;;;;;;;;;5040185;28;20267;-65
2023/02/03 14:11:49;;;;;;;1.85;0.90;;;;;;;;;;5053037;28;20189;-66
2023/02/03 14:14:39;;;;;;;1.13;0.90;;;;;;;;;;5053027;28;20209;-65
2023/02/03 14:17:16;;;;;;;1.27;1.17;;;;;;;;;;5051571;28;20235;-65
2023/02/03 14:19:55;;;;;;;2.47;2.28;;;;;;;;;;5053309;28;20568;-66
2023/02/03 14:22:23;;;;;;;0.70;0.70;;;;;;;;;;5052850;28;20338;-66
2023/02/03 14:24:53;;;;;;;3.45;1.92;;;;;;;;;;5052451;28;20571;-66
2023/02/03 14:27:23;;;;;;;9.10;7.13;;;;;;;;;;5052593;28;20200;-66
2023/02/03 14:30:03;;;;;;;24.85;15.73;;;;;;;;;;5050064;28;20200;-65
2023/02/03 14:32:48;;;;;;;11.20;8.40;;;;;;;;;;5050951;28;20212;-65
2023/02/03 14:35:17;;;;;;;4.68;4.28;;;;;;;;;;5051102;28;20691;-65
2023/02/03 14:37:52;;;;;;;2.55;2.45;;;;;;;;;;5049204;28;20686;-66
2023/02/03 14:40:25;;;;;;;1.52;1.42;;;;;;;;;;5052330;28;20573;-66
2023/02/03 14:43:08;;;;;;;4.10;3.40;;;;;;;;;;5052426;28;20539;-66
2023/02/03 14:45:46;;;;;;;3.90;3.60;;;;;;;;;;5050994;28;20211;-65
2023/02/03 14:48:22;;;;;;;1.80;1.70;;;;;;;;;;5052617;28;20210;-66
2023/02/03 14:50:57;;;;;;;1.15;1.15;;;;;;;;;;5051702;28;20180;-65
2023/02/03 14:53:31;;;;;;;2.20;2.10;;;;;;;;;;5048907;28;20706;-65
2023/02/03 14:56:08;;;;;;;3.55;3.35;;;;;;;;;;5051789;28;20199;-66
2023/02/03 14:58:40;;;;;;;1.00;1.00;;;;;;;;;;5052135;28;20192;-65
2023/02/03 15:01:08;;;;;;;0.95;0.80;;;;;;;;;;5051416;28;20189;-65
2023/02/03 15:03:40;;;;;;;1.85;1.75;;;;;;;;;;5048962;28;20236;-65
2023/02/03 15:06:28;;;;;;;0.90;0.90;;;;;;;;;;5051017;28;20192;-65
2023/02/03 15:08:58;;;;;;;2.65;2.55;;;;;;;;;;5051165;28;20346;-65